createdAt,value
2022-09-04T00:00:36.519Z,0.00
2022-09-04T00:01:38.819Z,0.00
2022-09-04T00:02:36.440Z,0.00
2022-09-04T00:03:36.473Z,0.00
2022-09-04T00:04:36.451Z,0.00
2022-09-04T00:05:36.329Z,0.00
2022-09-04T00:06:36.292Z,0.00
2022-09-04T00:07:36.250Z,0.00
2022-09-04T00:08:36.212Z,0.00
2022-09-04T00:09:36.193Z,0.00
2022-09-04T00:10:36.148Z,0.00
2022-09-04T00:11:36.102Z,0.00
2022-09-04T00:12:36.062Z,0.00
2022-09-04T00:13:36.025Z,0.00
2022-09-04T00:14:35.988Z,0.00
2022-09-04T00:15:35.977Z,0.00
2022-09-04T00:16:35.958Z,0.00
2022-09-04T00:17:35.879Z,0.00
2022-09-04T00:18:35.834Z,0.00
2022-09-04T00:19:35.798Z,0.00
2022-09-04T00:20:35.761Z,0.00
2022-09-04T00:21:35.731Z,0.00
2022-09-04T00:22:35.685Z,0.00
2022-09-04T00:23:35.645Z,0.00
2022-09-04T00:24:35.607Z,0.00
2022-09-04T00:25:35.571Z,0.00
2022-09-04T00:26:35.545Z,0.00
2022-09-04T00:27:36.090Z,0.00
2022-09-04T00:28:35.457Z,0.00
2022-09-04T00:29:35.420Z,0.00
2022-09-04T00:30:35.419Z,0.00
2022-09-04T00:31:35.342Z,0.00
2022-09-04T00:32:35.315Z,0.00
2022-09-04T00:33:35.269Z,0.00
2022-09-04T00:34:35.227Z,0.00
2022-09-04T00:35:35.191Z,0.00
2022-09-04T00:36:35.152Z,0.00
2022-09-04T00:37:35.114Z,0.00
2022-09-04T00:38:35.088Z,0.00
2022-09-04T00:39:35.065Z,0.00
2022-09-04T00:40:35.000Z,0.00
2022-09-04T00:41:34.967Z,0.00
2022-09-04T00:42:34.924Z,0.00
2022-09-04T00:43:34.888Z,0.00
2022-09-04T00:44:34.860Z,0.00
2022-09-04T00:45:34.858Z,0.00
2022-09-04T00:46:34.773Z,0.00
2022-09-04T00:47:34.737Z,0.00
2022-09-04T00:48:34.712Z,0.00
2022-09-04T00:49:34.661Z,0.00
2022-09-04T00:50:34.621Z,0.00
2022-09-04T00:51:34.590Z,0.00
2022-09-04T00:52:36.272Z,0.00
2022-09-04T00:53:34.512Z,0.00
2022-09-04T00:54:34.480Z,0.00
2022-09-04T00:55:34.436Z,0.00
2022-09-04T00:56:34.394Z,0.00
2022-09-04T00:57:34.629Z,0.00
2022-09-04T00:58:34.326Z,0.00
2022-09-04T00:59:34.279Z,0.00
2022-09-04T01:00:34.578Z,0.00
2022-09-04T01:01:36.762Z,0.00
2022-09-04T01:02:34.242Z,0.00
2022-09-04T01:03:34.128Z,0.00
2022-09-04T01:04:34.096Z,0.00
2022-09-04T01:05:34.054Z,0.00
2022-09-04T01:06:34.025Z,0.00
2022-09-04T01:07:33.978Z,0.00
2022-09-04T01:08:33.951Z,0.00
2022-09-04T01:09:33.909Z,0.00
2022-09-04T01:10:33.967Z,0.00
2022-09-04T01:11:33.826Z,0.00
2022-09-04T01:12:33.791Z,0.00
2022-09-04T01:13:33.747Z,0.00
2022-09-04T01:14:33.725Z,0.00
2022-09-04T01:15:33.678Z,0.00
2022-09-04T01:16:33.811Z,0.00
2022-09-04T01:17:33.608Z,0.00
2022-09-04T01:18:33.568Z,0.00
2022-09-04T01:19:33.523Z,0.00
2022-09-04T01:20:33.491Z,0.00
2022-09-04T01:21:33.447Z,0.00
2022-09-04T01:22:33.409Z,0.00
2022-09-04T01:23:33.371Z,0.00
2022-09-04T01:24:33.334Z,0.00
2022-09-04T01:25:33.305Z,0.00
2022-09-04T01:26:33.258Z,0.00
2022-09-04T01:27:33.222Z,0.00
2022-09-04T01:28:33.179Z,0.00
2022-09-04T01:29:33.146Z,0.00
2022-09-04T01:30:33.120Z,0.00
2022-09-04T01:31:33.123Z,0.00
2022-09-04T01:32:33.029Z,0.00
2022-09-04T01:33:32.992Z,0.00
2022-09-04T01:34:32.960Z,0.00
2022-09-04T01:35:32.915Z,0.00
2022-09-04T01:36:32.888Z,0.00
2022-09-04T01:37:32.840Z,0.00
2022-09-04T01:38:32.802Z,0.00
2022-09-04T01:39:32.808Z,0.00
2022-09-04T01:40:36.023Z,0.00
2022-09-04T01:41:36.436Z,0.00
2022-09-04T01:42:32.649Z,0.00
2022-09-04T01:43:32.612Z,0.00
2022-09-04T01:44:32.575Z,0.00
2022-09-04T01:45:32.601Z,0.00
2022-09-04T01:46:32.497Z,0.00
2022-09-04T01:47:32.479Z,0.00
2022-09-04T01:48:32.441Z,0.00
2022-09-04T01:49:32.385Z,0.00
2022-09-04T01:50:32.347Z,0.00
2022-09-04T01:51:32.306Z,0.00
2022-09-04T01:52:32.270Z,0.00
2022-09-04T01:53:32.999Z,0.00
2022-09-04T01:54:32.219Z,0.00
2022-09-04T01:55:32.157Z,0.00
2022-09-04T01:56:32.117Z,0.00
2022-09-04T01:57:32.079Z,0.00
2022-09-04T01:58:32.043Z,0.00
2022-09-04T01:59:32.002Z,0.00
2022-09-04T02:00:31.977Z,0.00
2022-09-04T02:01:31.981Z,0.00
2022-09-04T02:02:31.950Z,0.00
2022-09-04T02:03:31.861Z,0.00
2022-09-04T02:04:31.815Z,0.00
2022-09-04T02:05:31.789Z,0.00
2022-09-04T02:06:31.737Z,0.00
2022-09-04T02:07:31.700Z,0.00
2022-09-04T02:08:31.660Z,0.00
2022-09-04T02:09:31.628Z,0.00
2022-09-04T02:10:31.599Z,0.00
2022-09-04T02:11:31.550Z,0.00
2022-09-04T02:12:31.512Z,0.00
2022-09-04T02:13:31.474Z,0.00
2022-09-04T02:14:31.434Z,0.00
2022-09-04T02:15:31.394Z,0.00
2022-09-04T02:16:31.429Z,0.00
2022-09-04T02:17:31.318Z,0.00
2022-09-04T02:18:31.283Z,0.00
2022-09-04T02:19:31.242Z,0.00
2022-09-04T02:20:31.205Z,0.00
2022-09-04T02:21:31.167Z,0.00
2022-09-04T02:22:31.140Z,0.00
2022-09-04T02:23:31.088Z,0.00
2022-09-04T02:24:31.050Z,0.00
2022-09-04T02:25:31.013Z,0.00
2022-09-04T02:26:30.974Z,0.00
2022-09-04T02:27:30.939Z,0.00
2022-09-04T02:28:30.921Z,0.00
2022-09-04T02:29:31.517Z,0.00
2022-09-04T02:30:30.821Z,0.00
2022-09-04T02:31:30.811Z,0.00
2022-09-04T02:32:30.744Z,0.00
2022-09-04T02:33:30.708Z,0.00
2022-09-04T02:34:30.680Z,0.00
2022-09-04T02:35:30.631Z,0.00
2022-09-04T02:36:30.589Z,0.00
2022-09-04T02:37:30.557Z,0.00
2022-09-04T02:38:30.517Z,0.00
2022-09-04T02:39:30.523Z,0.00
2022-09-04T02:40:30.439Z,0.00
2022-09-04T02:41:30.400Z,0.00
2022-09-04T02:42:30.479Z,0.00
2022-09-04T02:43:30.327Z,0.00
2022-09-04T02:44:30.288Z,0.00
2022-09-04T02:45:30.262Z,0.00
2022-09-04T02:46:30.258Z,0.00
2022-09-04T02:47:30.174Z,0.00
2022-09-04T02:48:30.134Z,0.00
2022-09-04T02:49:30.100Z,0.00
2022-09-04T02:50:30.064Z,0.00
2022-09-04T02:51:30.018Z,0.00
2022-09-04T02:52:29.996Z,0.00
2022-09-04T02:53:29.942Z,0.00
2022-09-04T02:54:29.903Z,0.00
2022-09-04T02:55:29.866Z,0.00
2022-09-04T02:56:29.830Z,0.00
2022-09-04T02:57:29.802Z,0.00
2022-09-04T02:58:29.751Z,0.00
2022-09-04T02:59:29.722Z,0.00
2022-09-04T03:00:29.707Z,0.00
2022-09-04T03:01:29.636Z,0.00
2022-09-04T03:02:29.666Z,0.00
2022-09-04T03:03:29.558Z,0.00
2022-09-04T03:04:29.521Z,0.00
2022-09-04T03:05:29.486Z,0.00
2022-09-04T03:06:29.443Z,0.00
2022-09-04T03:07:29.408Z,0.00
2022-09-04T03:08:29.376Z,0.00
2022-09-04T03:09:29.330Z,0.00
2022-09-04T03:10:29.291Z,0.00
2022-09-04T03:11:29.254Z,0.00
2022-09-04T03:12:29.212Z,0.00
2022-09-04T03:13:29.187Z,0.00
2022-09-04T03:14:29.137Z,0.00
2022-09-04T03:15:29.099Z,0.00
2022-09-04T03:16:29.130Z,0.00
2022-09-04T03:17:29.022Z,0.00
2022-09-04T03:18:29.026Z,0.00
2022-09-04T03:19:28.961Z,0.00
2022-09-04T03:20:28.908Z,0.00
2022-09-04T03:21:28.871Z,0.00
2022-09-04T03:22:28.834Z,0.00
2022-09-04T03:23:28.807Z,0.00
2022-09-04T03:24:28.758Z,0.00
2022-09-04T03:25:28.713Z,0.00
2022-09-04T03:26:28.678Z,0.00
2022-09-04T03:27:28.642Z,0.00
2022-09-04T03:28:28.601Z,0.00
2022-09-04T03:29:28.575Z,0.00
2022-09-04T03:30:28.522Z,0.00
2022-09-04T03:31:28.569Z,0.00
2022-09-04T03:32:28.446Z,0.00
2022-09-04T03:33:28.412Z,0.00
2022-09-04T03:34:28.372Z,0.00
2022-09-04T03:35:28.331Z,0.00
2022-09-04T03:36:28.297Z,0.00
2022-09-04T03:37:28.269Z,0.00
2022-09-04T03:38:28.216Z,0.00
2022-09-04T03:39:28.201Z,0.00
2022-09-04T03:40:28.140Z,0.00
2022-09-04T03:41:28.101Z,0.00
2022-09-04T03:42:28.062Z,0.00
2022-09-04T03:43:28.041Z,0.00
2022-09-04T03:44:27.985Z,0.00
2022-09-04T03:45:27.949Z,0.00
2022-09-04T03:46:27.950Z,0.00
2022-09-04T03:47:27.878Z,0.00
2022-09-04T03:48:27.832Z,0.00
2022-09-04T03:50:59.869Z,0.00
2022-09-04T03:51:59.810Z,0.00
2022-09-04T03:52:59.766Z,0.00
2022-09-04T03:53:59.725Z,0.00
2022-09-04T03:54:59.706Z,0.00
2022-09-04T03:55:59.647Z,0.00
2022-09-04T03:56:59.614Z,0.00
2022-09-04T03:57:59.573Z,0.00
2022-09-04T03:58:59.535Z,0.00
2022-09-04T03:59:59.495Z,0.00
2022-09-04T04:00:59.513Z,0.00
2022-09-04T04:01:59.414Z,0.00
2022-09-04T04:02:59.441Z,0.00
2022-09-04T04:03:59.339Z,0.00
2022-09-04T04:04:59.302Z,0.00
2022-09-04T04:05:59.277Z,0.00
2022-09-04T04:06:59.225Z,0.00
2022-09-04T04:07:59.231Z,0.00
2022-09-04T04:08:59.147Z,0.00
2022-09-04T04:09:59.108Z,0.00
2022-09-04T04:10:59.073Z,0.00
2022-09-04T04:11:59.045Z,0.00
2022-09-04T04:12:58.994Z,0.00
2022-09-04T04:13:58.954Z,0.00
2022-09-04T04:14:58.921Z,0.00
2022-09-04T04:15:58.907Z,0.00
2022-09-04T04:16:58.850Z,0.00
2022-09-04T04:17:58.807Z,0.00
2022-09-04T04:18:58.763Z,0.00
2022-09-04T04:19:58.725Z,0.00
2022-09-04T04:20:58.688Z,0.00
2022-09-04T04:21:58.648Z,0.00
2022-09-04T04:22:58.622Z,0.00
2022-09-04T04:23:58.573Z,0.00
2022-09-04T04:24:58.534Z,0.00
2022-09-04T04:25:58.500Z,0.00
2022-09-04T04:26:58.457Z,0.00
2022-09-04T04:27:58.418Z,0.00
2022-09-04T04:28:58.393Z,0.00
2022-09-04T04:29:58.343Z,0.00
2022-09-04T04:30:58.335Z,0.00
2022-09-04T04:31:58.270Z,0.00
2022-09-04T04:32:58.227Z,0.00
2022-09-04T04:33:58.201Z,0.00
2022-09-04T04:34:58.177Z,0.00
2022-09-04T04:35:58.113Z,0.00
2022-09-04T04:36:58.076Z,5.63
2022-09-04T04:37:58.035Z,5.63
2022-09-04T04:38:58.112Z,5.63
2022-09-04T04:39:58.023Z,5.63
2022-09-04T04:40:57.934Z,5.63
2022-09-04T04:41:57.881Z,5.63
2022-09-04T04:42:57.847Z,5.63
2022-09-04T04:43:57.807Z,11.25
2022-09-04T04:44:57.772Z,11.25
2022-09-04T04:45:57.728Z,11.25
2022-09-04T04:46:57.746Z,11.25
2022-09-04T04:47:57.653Z,11.25
2022-09-04T04:48:57.617Z,16.88
2022-09-04T04:49:57.588Z,16.88
2022-09-04T04:50:57.544Z,16.88
2022-09-04T04:51:57.499Z,22.50
2022-09-04T04:52:57.460Z,22.50
2022-09-04T04:53:57.422Z,22.50
2022-09-04T04:54:57.385Z,28.13
2022-09-04T04:55:57.378Z,28.13
2022-09-04T04:56:57.306Z,28.13
2022-09-04T04:57:57.274Z,33.75
2022-09-04T04:58:57.233Z,33.75
2022-09-04T04:59:57.200Z,39.38
2022-09-04T05:00:57.154Z,39.38
2022-09-04T05:01:57.250Z,45.00
2022-09-04T05:02:57.112Z,45.00
2022-09-04T05:03:57.037Z,50.63
2022-09-04T05:04:57.002Z,50.63
2022-09-04T05:05:56.963Z,50.63
2022-09-04T05:06:56.924Z,56.25
2022-09-04T05:07:56.899Z,56.25
2022-09-04T05:08:56.870Z,61.88
2022-09-04T05:09:56.813Z,61.88
2022-09-04T05:10:56.770Z,67.50
2022-09-04T05:11:56.736Z,73.13
2022-09-04T05:12:56.697Z,73.13
2022-09-04T05:13:56.664Z,78.75
2022-09-04T05:14:56.617Z,84.38
2022-09-04T05:16:08.987Z,84.38
2022-09-04T05:16:56.633Z,90.00
2022-09-04T05:17:56.526Z,95.63
2022-09-04T05:18:56.475Z,95.63
2022-09-04T05:19:56.429Z,101.25
2022-09-04T05:20:56.387Z,106.88
2022-09-04T05:21:56.354Z,106.88
2022-09-04T05:22:56.311Z,112.50
2022-09-04T05:23:56.293Z,118.13
2022-09-04T05:24:56.261Z,118.13
2022-09-04T05:25:56.242Z,123.75
2022-09-04T05:26:56.165Z,123.75
2022-09-04T05:27:56.136Z,129.38
2022-09-04T05:28:56.082Z,129.38
2022-09-04T05:29:56.051Z,135.00
2022-09-04T05:30:56.057Z,140.63
2022-09-04T05:31:55.976Z,146.25
2022-09-04T05:32:55.938Z,146.25
2022-09-04T05:33:55.893Z,151.88
2022-09-04T05:34:55.865Z,151.88
2022-09-04T05:35:55.820Z,151.88
2022-09-04T05:36:55.833Z,157.50
2022-09-04T05:37:55.741Z,157.50
2022-09-04T05:38:55.702Z,163.13
2022-09-04T05:39:55.717Z,163.13
2022-09-04T05:40:55.630Z,168.75
2022-09-04T05:41:55.619Z,168.75
2022-09-04T05:42:55.567Z,168.75
2022-09-04T05:43:55.515Z,174.38
2022-09-04T05:44:55.472Z,174.38
2022-09-04T05:45:55.438Z,180.00
2022-09-04T05:46:55.403Z,180.00
2022-09-04T05:47:55.365Z,185.63
2022-09-04T05:48:55.333Z,185.63
2022-09-04T05:49:55.287Z,191.25
2022-09-04T05:50:55.248Z,208.13
2022-09-04T05:51:55.212Z,241.88
2022-09-04T05:52:55.184Z,292.50
2022-09-04T05:53:59.114Z,331.88
2022-09-04T05:54:55.111Z,343.13
2022-09-04T05:55:55.069Z,348.75
2022-09-04T05:56:55.023Z,354.38
2022-09-04T05:57:54.983Z,348.75
2022-09-04T05:58:54.947Z,343.13
2022-09-04T05:59:54.911Z,360.00
2022-09-04T06:00:54.883Z,376.88
2022-09-04T06:01:54.878Z,388.13
2022-09-04T06:02:54.866Z,399.38
2022-09-04T06:03:54.765Z,410.63
2022-09-04T06:04:54.722Z,393.75
2022-09-04T06:05:54.685Z,393.75
2022-09-04T06:06:54.668Z,393.75
2022-09-04T06:07:54.636Z,393.75
2022-09-04T06:08:54.576Z,399.38
2022-09-04T06:09:54.539Z,416.25
2022-09-04T06:10:54.507Z,427.50
2022-09-04T06:11:54.467Z,433.13
2022-09-04T06:12:54.431Z,438.75
2022-09-04T06:13:54.409Z,450.00
2022-09-04T06:14:54.362Z,455.63
2022-09-04T06:15:54.367Z,461.25
2022-09-04T06:16:54.287Z,466.88
2022-09-04T06:17:54.252Z,472.50
2022-09-04T06:18:54.219Z,483.75
2022-09-04T06:19:54.183Z,500.63
2022-09-04T06:20:54.144Z,506.25
2022-09-04T06:21:54.126Z,523.13
2022-09-04T06:22:55.795Z,540.00
2022-09-04T06:23:54.042Z,545.63
2022-09-04T06:24:54.002Z,556.88
2022-09-04T06:25:54.001Z,568.13
2022-09-04T06:26:53.974Z,568.13
2022-09-04T06:27:53.911Z,556.88
2022-09-04T06:28:53.865Z,579.38
2022-09-04T06:29:53.830Z,585.00
2022-09-04T06:30:53.816Z,590.63
2022-09-04T06:31:53.760Z,590.63
2022-09-04T06:32:53.736Z,585.00
2022-09-04T06:33:53.691Z,601.88
2022-09-04T06:34:53.655Z,590.63
2022-09-04T06:35:53.622Z,601.88
2022-09-04T06:36:53.587Z,579.38
2022-09-04T06:37:53.554Z,596.25
2022-09-04T06:38:53.529Z,568.13
2022-09-04T06:39:53.573Z,568.13
2022-09-04T06:40:53.448Z,596.25
2022-09-04T06:41:53.419Z,573.75
2022-09-04T06:42:53.381Z,545.63
2022-09-04T06:43:54.353Z,495.00
2022-09-04T06:44:53.311Z,495.00
2022-09-04T06:45:53.281Z,489.38
2022-09-04T06:46:53.293Z,489.38
2022-09-04T06:47:53.211Z,500.63
2022-09-04T06:48:53.182Z,511.88
2022-09-04T06:49:53.155Z,528.75
2022-09-04T06:50:53.105Z,680.63
2022-09-04T06:51:53.073Z,697.50
2022-09-04T06:52:53.038Z,748.13
2022-09-04T06:53:53.007Z,793.13
2022-09-04T06:54:52.978Z,798.75
2022-09-04T06:55:52.936Z,804.38
2022-09-04T06:56:52.901Z,798.75
2022-09-04T06:57:52.867Z,793.13
2022-09-04T06:58:52.831Z,871.88
2022-09-04T06:59:52.800Z,894.38
2022-09-04T07:00:52.775Z,933.75
2022-09-04T07:01:52.902Z,967.50
2022-09-04T07:02:52.723Z,1046.25
2022-09-04T07:03:52.666Z,1102.50
2022-09-04T07:04:52.623Z,1175.63
2022-09-04T07:05:52.592Z,1186.88
2022-09-04T07:06:52.572Z,1158.75
2022-09-04T07:07:52.546Z,1203.75
2022-09-04T07:08:52.488Z,1226.25
2022-09-04T07:09:52.456Z,1209.38
2022-09-04T07:10:52.436Z,1243.13
2022-09-04T07:11:52.388Z,1288.13
2022-09-04T07:12:52.353Z,1209.38
2022-09-04T07:13:52.331Z,1231.88
2022-09-04T07:14:52.287Z,1215.00
2022-09-04T07:15:52.274Z,1276.88
2022-09-04T07:16:52.237Z,1321.88
2022-09-04T07:17:52.188Z,1400.63
2022-09-04T07:18:52.153Z,1383.75
2022-09-04T07:19:52.122Z,1417.50
2022-09-04T07:20:52.086Z,1603.13
2022-09-04T07:21:52.057Z,1788.75
2022-09-04T07:22:52.032Z,1636.88
2022-09-04T07:23:51.989Z,1395.00
2022-09-04T07:24:51.955Z,1305.00
2022-09-04T07:25:51.922Z,1282.50
2022-09-04T07:26:51.899Z,1271.25
2022-09-04T07:27:51.856Z,1265.63
2022-09-04T07:28:51.828Z,1260.00
2022-09-04T07:29:51.789Z,1243.13
2022-09-04T07:30:51.758Z,1215.00
2022-09-04T07:31:51.778Z,1215.00
2022-09-04T07:32:51.690Z,1220.63
2022-09-04T07:33:51.677Z,1209.38
2022-09-04T07:34:51.637Z,1181.25
2022-09-04T07:35:51.622Z,1158.75
2022-09-04T07:36:51.559Z,1136.25
2022-09-04T07:37:52.485Z,1130.63
2022-09-04T07:38:51.703Z,1147.50
2022-09-04T07:39:51.567Z,1125.00
2022-09-04T07:40:51.439Z,1113.75
2022-09-04T07:41:51.396Z,1108.13
2022-09-04T07:42:51.364Z,1113.75
2022-09-04T07:43:54.628Z,1130.63
2022-09-04T07:44:51.306Z,1130.63
2022-09-04T07:45:51.516Z,1136.25
2022-09-04T07:46:51.243Z,1130.63
2022-09-04T07:47:51.202Z,1147.50
2022-09-04T07:48:52.062Z,1147.50
2022-09-04T07:49:51.139Z,1147.50
2022-09-04T07:50:51.107Z,1153.13
2022-09-04T07:51:51.071Z,1192.50
2022-09-04T07:52:51.049Z,1226.25
2022-09-04T07:53:51.010Z,1226.25
2022-09-04T07:54:50.974Z,1215.00
2022-09-04T07:55:50.944Z,1164.38
2022-09-04T07:56:50.904Z,1158.75
2022-09-04T07:57:50.883Z,1141.88
2022-09-04T07:58:50.854Z,1119.38
2022-09-04T07:59:50.845Z,1119.38
2022-09-04T08:00:50.818Z,1136.25
2022-09-04T08:01:50.772Z,1147.50
2022-09-04T08:02:50.728Z,1113.75
2022-09-04T08:03:53.882Z,1096.88
2022-09-04T08:04:50.725Z,1108.13
2022-09-04T08:05:50.619Z,1119.38
2022-09-04T08:06:50.588Z,1125.00
2022-09-04T08:07:50.557Z,1108.13
2022-09-04T08:08:50.538Z,1119.38
2022-09-04T08:09:50.492Z,1119.38
2022-09-04T08:10:50.461Z,1147.50
2022-09-04T08:11:50.433Z,1186.88
2022-09-04T08:12:50.876Z,1192.50
2022-09-04T08:13:52.096Z,1192.50
2022-09-04T08:14:50.335Z,1181.25
2022-09-04T08:15:50.325Z,1203.75
2022-09-04T08:16:50.270Z,1198.13
2022-09-04T08:17:50.239Z,1186.88
2022-09-04T08:18:50.209Z,1175.63
2022-09-04T08:19:50.190Z,1186.88
2022-09-04T08:20:50.144Z,1203.75
2022-09-04T08:21:50.118Z,1226.25
2022-09-04T08:22:50.084Z,1254.38
2022-09-04T08:23:50.053Z,1248.75
2022-09-04T08:24:50.020Z,1282.50
2022-09-04T08:25:50.000Z,1276.88
2022-09-04T08:26:49.958Z,1276.88
2022-09-04T08:27:49.933Z,1310.63
2022-09-04T08:28:49.896Z,1344.38
2022-09-04T08:29:49.931Z,1366.88
2022-09-04T08:30:49.861Z,1344.38
2022-09-04T08:31:49.817Z,1406.25
2022-09-04T08:32:49.775Z,1417.50
2022-09-04T08:33:49.751Z,1440.00
2022-09-04T08:34:49.711Z,1468.13
2022-09-04T08:35:49.683Z,1473.75
2022-09-04T08:36:49.660Z,1496.25
2022-09-04T08:37:49.618Z,1524.38
2022-09-04T08:38:49.605Z,1546.88
2022-09-04T08:39:49.624Z,1563.75
2022-09-04T08:40:52.137Z,1608.75
2022-09-04T08:41:49.507Z,1648.13
2022-09-04T08:42:49.487Z,1693.13
2022-09-04T08:43:49.434Z,1726.88
2022-09-04T08:44:49.400Z,1766.25
2022-09-04T08:45:49.390Z,1805.63
2022-09-04T08:46:49.624Z,1811.25
2022-09-04T08:47:49.323Z,1873.13
2022-09-04T08:48:49.288Z,1878.75
2022-09-04T08:49:49.247Z,1912.50
2022-09-04T08:50:49.222Z,1935.00
2022-09-04T08:51:49.215Z,1963.13
2022-09-04T08:52:49.151Z,1974.38
2022-09-04T08:53:49.143Z,2070.00
2022-09-04T08:54:49.092Z,2103.75
2022-09-04T08:55:49.061Z,2098.13
2022-09-04T08:56:49.030Z,2103.75
2022-09-04T08:57:48.998Z,2103.75
2022-09-04T08:58:48.974Z,2086.88
2022-09-04T08:59:48.958Z,2098.13
2022-09-04T09:00:48.977Z,2115.00
2022-09-04T09:01:48.902Z,2098.13
2022-09-04T09:02:48.880Z,2126.25
2022-09-04T09:03:48.815Z,2143.13
2022-09-04T09:04:48.844Z,2188.13
2022-09-04T09:05:48.766Z,2261.25
2022-09-04T09:06:48.723Z,2278.13
2022-09-04T09:07:48.694Z,2311.88
2022-09-04T09:08:48.662Z,2334.38
2022-09-04T09:09:48.633Z,2373.75
2022-09-04T09:10:48.600Z,2401.88
2022-09-04T09:11:48.583Z,2452.50
2022-09-04T09:12:48.543Z,2480.63
2022-09-04T09:13:48.539Z,2520.00
2022-09-04T09:14:48.479Z,2508.75
2022-09-04T09:15:48.450Z,2559.38
2022-09-04T09:16:48.502Z,2581.88
2022-09-04T09:17:48.392Z,2671.88
2022-09-04T09:18:48.359Z,2694.38
2022-09-04T09:19:48.338Z,2671.88
2022-09-04T09:20:49.099Z,2756.25
2022-09-04T09:21:48.269Z,2795.63
2022-09-04T09:22:48.238Z,2756.25
2022-09-04T09:23:48.207Z,2790.00
2022-09-04T09:24:48.181Z,2835.00
2022-09-04T09:25:48.168Z,2829.38
2022-09-04T09:26:48.120Z,2863.13
2022-09-04T09:27:48.090Z,2902.50
2022-09-04T09:28:48.542Z,2835.00
2022-09-04T09:29:48.028Z,2908.13
2022-09-04T09:30:48.041Z,2818.13
2022-09-04T09:31:47.985Z,2784.38
2022-09-04T09:32:47.940Z,2863.13
2022-09-04T09:33:47.911Z,2868.75
2022-09-04T09:34:47.897Z,2964.38
2022-09-04T09:35:47.852Z,3020.63
2022-09-04T09:36:47.831Z,3037.50
2022-09-04T09:37:47.820Z,3076.88
2022-09-04T09:38:47.761Z,3054.38
2022-09-04T09:39:47.774Z,3105.00
2022-09-04T09:40:47.705Z,3071.25
2022-09-04T09:41:47.676Z,3110.63
2022-09-04T09:42:47.646Z,3116.25
2022-09-04T09:43:47.626Z,3088.13
2022-09-04T09:44:47.589Z,3172.50
2022-09-04T09:45:47.615Z,3161.25
2022-09-04T09:46:47.528Z,3172.50
2022-09-04T09:47:47.499Z,3138.75
2022-09-04T09:48:47.470Z,3138.75
2022-09-04T09:49:47.454Z,3127.50
2022-09-04T09:50:56.652Z,3099.38
2022-09-04T09:51:47.385Z,3138.75
2022-09-04T09:52:47.355Z,3200.63
2022-09-04T09:53:47.689Z,3228.75
2022-09-04T09:54:47.294Z,3318.75
2022-09-04T09:55:47.278Z,3330.00
2022-09-04T09:56:53.817Z,3335.63
2022-09-04T09:57:47.208Z,3369.38
2022-09-04T09:58:47.190Z,3414.38
2022-09-04T09:59:47.150Z,3403.13
2022-09-04T10:00:47.177Z,3330.00
2022-09-04T10:01:47.091Z,3346.88
2022-09-04T10:02:47.125Z,3324.38
2022-09-04T10:03:47.036Z,3279.38
2022-09-04T10:04:47.008Z,3380.63
2022-09-04T10:05:46.975Z,3346.88
2022-09-04T10:06:46.963Z,2328.75
2022-09-04T10:07:46.919Z,2086.88
2022-09-04T10:08:46.901Z,2165.63
2022-09-04T10:09:46.860Z,3375.00
2022-09-04T10:10:46.832Z,2745.00
2022-09-04T10:11:46.806Z,3301.88
2022-09-04T10:12:46.776Z,3183.75
2022-09-04T10:13:46.744Z,3330.00
2022-09-04T10:14:46.768Z,3386.25
2022-09-04T10:15:46.686Z,3431.25
2022-09-04T10:16:46.719Z,3403.13
2022-09-04T10:17:46.629Z,3487.50
2022-09-04T10:18:46.606Z,3459.38
2022-09-04T10:19:46.573Z,3414.38
2022-09-04T10:20:46.555Z,3369.38
2022-09-04T10:21:46.527Z,3217.50
2022-09-04T10:22:46.484Z,3037.50
2022-09-04T10:23:46.478Z,3009.38
2022-09-04T10:24:46.427Z,3144.38
2022-09-04T10:25:46.399Z,3211.88
2022-09-04T10:26:46.382Z,3172.50
2022-09-04T10:27:46.355Z,3211.88
2022-09-04T10:28:46.313Z,3285.00
2022-09-04T10:29:46.285Z,3358.13
2022-09-04T10:30:46.292Z,3346.88
2022-09-04T10:31:46.230Z,3369.38
2022-09-04T10:32:46.201Z,3386.25
2022-09-04T10:33:46.180Z,3358.13
2022-09-04T10:34:46.143Z,3363.75
2022-09-04T10:35:46.115Z,3386.25
2022-09-04T10:36:46.087Z,3363.75
2022-09-04T10:37:46.060Z,3346.88
2022-09-04T10:38:46.030Z,3240.00
2022-09-04T10:39:46.043Z,3273.75
2022-09-04T10:40:49.304Z,3290.63
2022-09-04T10:41:45.942Z,3251.25
2022-09-04T10:42:45.917Z,3341.25
2022-09-04T10:43:45.887Z,3279.38
2022-09-04T10:44:45.859Z,3183.75
2022-09-04T10:45:45.912Z,3076.88
2022-09-04T10:46:45.802Z,3099.38
2022-09-04T10:47:45.773Z,3088.13
2022-09-04T10:48:45.746Z,2992.50
2022-09-04T10:49:45.716Z,3172.50
2022-09-04T10:50:45.692Z,3296.25
2022-09-04T10:51:45.672Z,3341.25
2022-09-04T10:52:45.633Z,3228.75
2022-09-04T10:53:45.605Z,3161.25
2022-09-04T10:54:45.578Z,3200.63
2022-09-04T10:55:45.548Z,3476.25
2022-09-04T10:56:45.531Z,3498.75
2022-09-04T10:57:45.495Z,3487.50
2022-09-04T10:58:45.467Z,3397.50
2022-09-04T10:59:45.438Z,3420.00
2022-09-04T11:00:45.428Z,3403.13
2022-09-04T11:01:45.381Z,3448.13
2022-09-04T11:02:45.491Z,3470.63
2022-09-04T11:03:45.324Z,3442.50
2022-09-04T11:04:45.297Z,3588.75
2022-09-04T11:05:45.269Z,3650.63
2022-09-04T11:06:45.241Z,956.25
2022-09-04T11:07:45.213Z,916.88
2022-09-04T11:08:45.196Z,905.63
2022-09-04T11:09:45.155Z,1035.00
2022-09-04T11:10:45.132Z,2396.25
2022-09-04T11:11:45.099Z,1001.25
2022-09-04T11:12:45.072Z,905.63
2022-09-04T11:13:49.291Z,916.88
2022-09-04T11:14:45.025Z,3071.25
2022-09-04T11:15:44.998Z,1023.75
2022-09-04T11:16:45.002Z,1091.25
2022-09-04T11:17:44.938Z,3341.25
2022-09-04T11:18:44.915Z,3605.63
2022-09-04T11:19:47.642Z,3566.25
2022-09-04T11:20:44.852Z,3543.75
2022-09-04T11:21:44.809Z,3470.63
2022-09-04T11:22:44.783Z,1001.25
2022-09-04T11:23:44.746Z,900.00
2022-09-04T11:24:44.724Z,855.00
2022-09-04T11:25:44.698Z,843.75
2022-09-04T11:26:44.780Z,838.13
2022-09-04T11:27:45.323Z,798.75
2022-09-04T11:28:44.600Z,765.00
2022-09-04T11:29:44.569Z,753.75
2022-09-04T11:30:48.123Z,742.50
2022-09-04T11:31:44.577Z,714.38
2022-09-04T11:32:44.513Z,691.88
2022-09-04T11:33:44.447Z,652.50
2022-09-04T11:34:44.417Z,630.00
2022-09-04T11:35:44.390Z,613.13
2022-09-04T11:36:44.354Z,618.75
2022-09-04T11:37:44.323Z,630.00
2022-09-04T11:38:44.308Z,663.75
2022-09-04T11:39:44.298Z,736.88
2022-09-04T11:40:44.230Z,770.63
2022-09-04T11:41:44.199Z,697.50
2022-09-04T11:42:44.165Z,708.75
2022-09-04T11:43:44.137Z,742.50
2022-09-04T11:44:44.112Z,776.25
2022-09-04T11:45:44.124Z,838.13
2022-09-04T11:46:44.039Z,933.75
2022-09-04T11:47:44.011Z,3088.13
2022-09-04T11:48:43.976Z,1462.50
2022-09-04T11:49:43.942Z,894.38
2022-09-04T11:50:43.922Z,1816.88
2022-09-04T11:51:43.877Z,2846.25
2022-09-04T11:52:43.845Z,2857.50
2022-09-04T11:53:43.815Z,3026.25
2022-09-04T11:54:43.782Z,3155.63
2022-09-04T11:55:43.761Z,3206.25
2022-09-04T11:56:43.719Z,3285.00
2022-09-04T11:57:43.697Z,3268.13
2022-09-04T11:58:43.659Z,3318.75
2022-09-04T11:59:43.625Z,3307.50
2022-09-04T12:00:43.592Z,3251.25
2022-09-04T12:01:47.685Z,2947.50
2022-09-04T12:02:43.532Z,3313.13
2022-09-04T12:03:43.569Z,3279.38
2022-09-04T12:04:43.492Z,3262.50
2022-09-04T12:05:43.440Z,3285.00
2022-09-04T12:06:43.409Z,3290.63
2022-09-04T12:07:43.607Z,3335.63
2022-09-04T12:08:43.351Z,1113.75
2022-09-04T12:09:43.317Z,2615.63
2022-09-04T12:10:43.303Z,2531.25
2022-09-04T12:11:43.262Z,1068.75
2022-09-04T12:12:43.228Z,1001.25
2022-09-04T12:13:43.202Z,1057.50
2022-09-04T12:14:43.202Z,995.63
2022-09-04T12:15:43.147Z,860.63
2022-09-04T12:16:44.611Z,843.75
2022-09-04T12:17:43.090Z,911.25
2022-09-04T12:18:43.060Z,2041.88
2022-09-04T12:19:43.022Z,2975.63
2022-09-04T12:20:43.007Z,1051.88
2022-09-04T12:21:42.965Z,1125.00
2022-09-04T12:22:42.936Z,2227.50
2022-09-04T12:23:42.909Z,3290.63
2022-09-04T12:24:42.882Z,3240.00
2022-09-04T12:25:42.861Z,2469.38
2022-09-04T12:26:51.513Z,1147.50
2022-09-04T12:27:42.786Z,1063.13
2022-09-04T12:28:42.756Z,1029.38
2022-09-04T12:29:42.732Z,3206.25
2022-09-04T12:30:42.699Z,1164.38
2022-09-04T12:31:42.749Z,838.13
2022-09-04T12:32:42.659Z,798.75
2022-09-04T12:33:42.606Z,2109.38
2022-09-04T12:34:42.578Z,742.50
2022-09-04T12:35:42.550Z,742.50
2022-09-04T12:36:42.517Z,770.63
2022-09-04T12:37:42.498Z,798.75
2022-09-04T12:38:42.471Z,798.75
2022-09-04T12:39:42.468Z,798.75